createdAt,value
2023-06-05T00:00:50.723Z,96206.34
2023-06-05T00:03:19.493Z,96199.41
2023-06-05T00:05:46.488Z,96196.75
2023-06-05T00:08:13.492Z,96189.63
2023-06-05T00:10:40.058Z,96196.91
2023-06-05T00:13:06.845Z,96194.00
2023-06-05T00:15:36.848Z,96188.16
2023-06-05T00:18:05.246Z,96198.59
2023-06-05T00:20:32.205Z,96194.91
2023-06-05T00:22:58.789Z,96194.56
2023-06-05T00:25:25.392Z,96196.00
2023-06-05T00:27:52.004Z,96187.44
2023-06-05T00:30:18.605Z,96200.00
2023-06-05T00:32:45.230Z,96196.56
2023-06-05T00:35:11.839Z,96186.53
2023-06-05T00:37:38.368Z,96187.22
2023-06-05T00:40:06.747Z,96187.81
2023-06-05T00:42:33.568Z,96189.53
2023-06-05T00:45:00.109Z,96188.81
2023-06-05T00:47:27.077Z,96187.22
2023-06-05T00:49:53.729Z,96183.56
2023-06-05T00:52:20.567Z,96182.94
2023-06-05T00:54:47.343Z,96186.69
2023-06-05T00:57:13.973Z,96191.44
2023-06-05T00:59:41.711Z,96182.66
2023-06-05T01:02:08.335Z,96188.34
2023-06-05T01:04:34.965Z,96193.09
2023-06-05T01:07:02.396Z,96180.69
2023-06-05T01:09:29.232Z,96180.69
2023-06-05T01:11:58.644Z,96176.38
2023-06-05T01:14:31.999Z,96187.28
2023-06-05T01:17:02.013Z,96181.41
2023-06-05T01:19:33.795Z,96182.97
2023-06-05T01:22:00.675Z,96179.44
2023-06-05T01:24:29.006Z,96177.38
2023-06-05T01:27:06.082Z,96175.34
2023-06-05T01:29:38.892Z,96172.47
2023-06-05T01:32:13.416Z,96177.56
2023-06-05T01:34:44.570Z,96176.50
2023-06-05T01:37:15.998Z,96176.50
2023-06-05T01:39:43.230Z,96173.19
2023-06-05T01:42:10.206Z,96176.34
2023-06-05T01:44:36.835Z,96178.56
2023-06-05T01:47:03.529Z,96174.63
2023-06-05T01:49:30.159Z,96176.66
2023-06-05T01:51:56.842Z,96162.88
2023-06-05T01:54:24.515Z,96169.03
2023-06-05T01:56:51.551Z,96166.16
2023-06-05T01:59:18.157Z,96159.31
2023-06-05T02:01:45.511Z,96158.44
2023-06-05T02:04:12.667Z,96163.66
2023-06-05T02:06:45.397Z,96169.03
2023-06-05T02:09:11.956Z,96158.94
2023-06-05T02:11:43.788Z,96159.19
2023-06-05T02:14:14.196Z,96155.63
2023-06-05T02:16:41.614Z,96159.34
2023-06-05T02:19:08.337Z,96153.31
2023-06-05T02:21:35.140Z,96153.06
2023-06-05T02:24:01.843Z,96154.81
2023-06-05T02:26:28.965Z,96152.56
2023-06-05T02:28:56.052Z,96150.53
2023-06-05T02:31:26.633Z,96153.69
2023-06-05T02:33:53.916Z,96156.72
2023-06-05T02:36:20.531Z,96156.72
2023-06-05T02:38:47.363Z,96157.97
2023-06-05T02:41:13.974Z,96158.06
2023-06-05T02:43:40.514Z,96159.13
2023-06-05T02:46:07.108Z,96155.19
2023-06-05T02:48:33.679Z,96154.88
2023-06-05T02:51:00.306Z,96152.03
2023-06-05T02:53:27.006Z,96148.84
2023-06-05T02:55:54.295Z,96148.84
2023-06-05T02:58:22.812Z,96152.47
2023-06-05T03:00:51.776Z,96135.59
2023-06-05T03:03:18.533Z,96150.53
2023-06-05T03:05:45.579Z,96141.31
2023-06-05T03:08:12.392Z,96134.41
2023-06-05T03:10:38.990Z,96127.97
2023-06-05T03:13:05.731Z,96130.13
2023-06-05T03:15:32.430Z,96129.47
2023-06-05T03:17:59.120Z,96127.50
2023-06-05T03:20:26.625Z,96127.25
2023-06-05T03:22:53.282Z,96127.88
2023-06-05T03:25:19.873Z,96136.13
2023-06-05T03:27:47.521Z,96135.81
2023-06-05T03:30:17.934Z,96139.88
2023-06-05T03:32:44.819Z,96141.13
2023-06-05T03:35:11.393Z,96141.94
2023-06-05T03:37:37.994Z,96147.22
2023-06-05T03:40:06.078Z,96143.13
2023-06-05T03:42:32.709Z,96139.13
2023-06-05T03:44:59.329Z,96146.41
2023-06-05T03:47:25.940Z,96149.69
2023-06-05T03:49:53.779Z,96141.19
2023-06-05T03:52:24.632Z,96151.03
2023-06-05T03:54:54.641Z,96150.91
2023-06-05T03:57:21.658Z,96149.38
2023-06-05T03:59:48.398Z,96152.31
2023-06-05T04:02:15.447Z,96151.53
2023-06-05T04:04:42.035Z,96145.09
2023-06-05T04:07:08.639Z,96147.09
2023-06-05T04:09:35.222Z,96143.69
2023-06-05T04:12:02.010Z,96144.16
2023-06-05T04:14:28.589Z,96134.25
2023-06-05T04:16:55.184Z,96146.72
2023-06-05T04:19:22.560Z,96136.28
2023-06-05T04:21:49.446Z,96137.13
2023-06-05T04:24:16.187Z,96140.88
2023-06-05T04:26:42.786Z,96142.03
2023-06-05T04:29:17.025Z,96143.34
2023-06-05T04:31:44.343Z,96138.28
2023-06-05T04:34:11.008Z,96141.69
2023-06-05T04:36:37.741Z,96140.91
2023-06-05T04:39:15.756Z,96138.47
2023-06-05T04:41:46.297Z,96136.78
2023-06-05T04:44:14.220Z,96127.25
2023-06-05T04:46:41.045Z,96134.22
2023-06-05T04:49:07.870Z,96130.09
2023-06-05T04:51:34.573Z,96128.66
2023-06-05T04:54:01.517Z,96133.56
2023-06-05T04:56:28.058Z,96136.16
2023-06-05T04:58:54.775Z,96136.28
2023-06-05T05:01:21.597Z,96136.69
2023-06-05T05:03:49.253Z,96143.50
2023-06-05T05:06:16.311Z,96139.06
2023-06-05T05:08:44.485Z,96146.97
2023-06-05T05:11:11.263Z,96142.09
2023-06-05T05:13:38.009Z,96145.59
2023-06-05T05:16:04.734Z,96141.53
2023-06-05T05:18:31.497Z,96144.47
2023-06-05T05:20:58.060Z,96154.91
2023-06-05T05:23:24.581Z,96146.78
2023-06-05T05:25:51.234Z,96146.28
2023-06-05T05:28:17.827Z,96150.66
2023-06-05T05:30:44.365Z,96148.25
2023-06-05T05:33:11.007Z,96151.31
2023-06-05T05:35:37.563Z,96146.41
2023-06-05T05:38:04.261Z,96140.81
2023-06-05T05:40:31.174Z,96147.38
2023-06-05T05:42:57.703Z,96148.25
2023-06-05T05:45:24.213Z,96143.72
2023-06-05T05:47:50.788Z,96144.75
2023-06-05T05:50:17.398Z,96146.44
2023-06-05T05:52:48.716Z,96157.78
2023-06-05T05:55:15.368Z,96149.53
2023-06-05T05:57:41.943Z,96154.88
2023-06-05T06:00:13.450Z,96148.94
2023-06-05T06:02:40.583Z,96157.44
2023-06-05T06:05:07.370Z,96153.50
2023-06-05T06:07:34.018Z,96155.53
2023-06-05T06:10:00.621Z,96157.50
2023-06-05T06:12:28.579Z,96160.00
2023-06-05T06:14:58.132Z,96147.97
2023-06-05T06:17:25.190Z,96156.75
2023-06-05T06:19:52.492Z,96155.66
2023-06-05T06:22:19.434Z,96156.47
2023-06-05T06:24:47.459Z,96155.66
2023-06-05T06:29:51.215Z,96158.09
2023-06-05T06:32:18.479Z,96167.81
2023-06-05T06:34:46.215Z,96153.28
2023-06-05T06:37:16.512Z,96158.22
2023-06-05T06:39:43.529Z,96167.47
2023-06-05T06:42:11.454Z,96154.75
2023-06-05T06:44:38.290Z,96162.88
2023-06-05T06:47:04.986Z,96157.78
2023-06-05T06:49:31.567Z,96153.06
2023-06-05T06:51:58.287Z,96154.97
2023-06-05T06:54:26.640Z,96162.28
2023-06-05T06:56:53.184Z,96164.13
2023-06-05T06:59:19.710Z,96159.38
2023-06-05T07:01:47.344Z,96164.19
2023-06-05T07:04:21.397Z,96160.00
2023-06-05T07:06:49.080Z,96165.38
2023-06-05T07:09:15.740Z,96172.88
2023-06-05T07:11:42.286Z,96167.63
2023-06-05T07:14:08.868Z,96174.91
2023-06-05T07:16:35.422Z,96167.06
2023-06-05T07:19:01.976Z,96155.75
2023-06-05T07:21:28.814Z,96162.28
2023-06-05T07:23:55.755Z,96164.38
2023-06-05T07:26:22.784Z,96161.13
2023-06-05T07:28:50.599Z,96161.09
2023-06-05T07:31:18.570Z,96161.09
2023-06-05T07:33:45.162Z,96163.53
2023-06-05T07:36:11.826Z,96161.16
2023-06-05T07:38:39.755Z,96162.56
2023-06-05T07:41:06.862Z,96162.19
2023-06-05T07:43:33.463Z,96165.84
2023-06-05T07:46:00.073Z,96158.69
2023-06-05T07:48:26.913Z,96161.59
2023-06-05T07:50:53.446Z,96170.50
2023-06-05T07:53:20.003Z,96165.00
2023-06-05T07:55:46.592Z,96163.88
2023-06-05T07:58:13.133Z,96162.69
2023-06-05T08:00:39.674Z,96155.94
2023-06-05T08:03:07.830Z,96162.50
2023-06-05T08:05:36.885Z,96160.38
2023-06-05T08:08:03.712Z,96162.34
2023-06-05T08:10:30.230Z,96164.16
2023-06-05T08:12:56.791Z,96163.44
2023-06-05T08:15:23.320Z,96169.22
2023-06-05T08:17:50.039Z,96166.94
2023-06-05T08:20:16.926Z,96165.38
2023-06-05T08:22:44.084Z,96164.00
2023-06-05T08:25:10.638Z,96169.34
2023-06-05T08:27:37.265Z,96164.63
2023-06-05T08:30:04.906Z,96166.81
2023-06-05T08:32:31.610Z,96162.06
2023-06-05T08:34:58.410Z,96173.91
2023-06-05T08:37:25.219Z,96172.59
2023-06-05T08:39:52.071Z,96162.41
2023-06-05T08:42:21.848Z,96169.69
2023-06-05T08:45:01.042Z,96173.78
2023-06-05T08:47:30.433Z,96176.66
2023-06-05T08:49:57.581Z,96167.78
2023-06-05T08:52:26.312Z,96167.03
2023-06-05T08:54:53.103Z,96165.28
2023-06-05T08:57:19.816Z,96165.56
2023-06-05T08:59:47.019Z,96163.97
2023-06-05T09:02:13.579Z,96162.69
2023-06-05T09:04:40.110Z,96167.28
2023-06-05T09:07:08.207Z,96170.44
2023-06-05T09:09:35.360Z,96175.44
2023-06-05T09:12:02.807Z,96167.63
2023-06-05T09:14:29.365Z,96170.22
2023-06-05T09:16:55.912Z,96171.09
2023-06-05T09:19:26.344Z,96176.22
2023-06-05T09:21:53.600Z,96171.34
2023-06-05T09:24:21.304Z,96162.81
2023-06-05T09:26:59.716Z,96170.50
2023-06-05T09:29:33.467Z,96161.22
2023-06-05T09:32:07.512Z,96169.25
2023-06-05T09:34:35.165Z,96167.47
2023-06-05T09:37:02.388Z,96167.19
2023-06-05T09:39:29.867Z,96168.63
2023-06-05T09:41:57.302Z,96162.31
2023-06-05T09:44:24.528Z,96160.00
2023-06-05T09:47:11.181Z,96169.84
2023-06-05T09:49:41.006Z,96168.13
2023-06-05T09:52:08.752Z,96166.91
2023-06-05T09:54:37.266Z,96154.53
2023-06-05T09:57:04.986Z,96152.09
2023-06-05T09:59:35.592Z,96155.56
2023-06-05T10:02:03.760Z,96148.56
2023-06-05T10:04:31.282Z,96155.13
2023-06-05T10:07:02.287Z,96160.06
2023-06-05T10:09:30.741Z,96157.88
2023-06-05T10:11:58.902Z,96149.81
2023-06-05T10:14:25.564Z,96152.31
2023-06-05T10:16:53.029Z,96149.94
2023-06-05T10:19:21.050Z,96154.03
2023-06-05T10:21:48.604Z,96156.91
2023-06-05T10:24:23.463Z,96144.22
2023-06-05T10:26:57.847Z,96144.56
2023-06-05T10:29:33.563Z,96143.63
2023-06-05T10:32:04.151Z,96149.34
2023-06-05T10:34:49.947Z,96141.81
2023-06-05T10:37:54.960Z,96140.56
2023-06-05T10:40:21.806Z,96143.81
2023-06-05T10:42:48.398Z,96139.97
2023-06-05T10:45:30.341Z,96136.03
2023-06-05T10:47:56.901Z,96125.53
2023-06-05T10:50:26.238Z,96132.31
2023-06-05T10:52:54.087Z,96132.44
2023-06-05T10:55:21.408Z,96128.66
2023-06-05T10:58:02.962Z,96127.50
2023-06-05T11:00:30.049Z,96128.72
2023-06-05T11:02:58.390Z,96132.03
2023-06-05T11:05:27.046Z,96134.13
2023-06-05T11:08:14.518Z,96127.25
2023-06-05T11:10:59.646Z,96134.72
2023-06-05T11:13:26.474Z,96131.13
2023-06-05T11:15:57.620Z,96127.91
2023-06-05T11:18:27.756Z,96128.59
2023-06-05T11:20:54.707Z,96135.91
2023-06-05T11:23:22.335Z,96135.97
2023-06-05T11:25:50.129Z,96133.88
2023-06-05T11:28:36.590Z,96136.63
2023-06-05T11:31:03.285Z,96139.41
2023-06-05T11:33:30.444Z,96136.34
2023-06-05T11:36:00.896Z,96137.72
2023-06-05T11:38:27.437Z,96134.19
2023-06-05T11:40:54.890Z,96133.97
2023-06-05T11:43:22.329Z,96126.75
2023-06-05T11:45:58.864Z,96131.50
2023-06-05T11:48:26.534Z,96135.91
2023-06-05T11:50:57.769Z,96134.41
2023-06-05T11:53:25.146Z,96141.19
2023-06-05T11:55:52.371Z,96154.56
2023-06-05T11:58:25.379Z,96147.97
2023-06-05T12:00:52.606Z,96145.50
2023-06-05T12:03:22.682Z,96143.97
2023-06-05T12:05:49.810Z,96154.47
2023-06-05T12:08:22.941Z,96150.41
2023-06-05T12:10:49.506Z,96160.47
2023-06-05T12:13:16.377Z,96162.03
2023-06-05T12:15:42.939Z,96158.72
2023-06-05T12:18:09.673Z,96164.94
2023-06-05T12:20:41.235Z,96164.00
2023-06-05T12:23:08.203Z,96152.53
2023-06-05T12:25:34.878Z,96147.94
2023-06-05T12:28:01.424Z,96142.41
2023-06-05T12:30:40.119Z,96145.19
2023-06-05T12:33:06.785Z,96142.91
2023-06-05T12:35:33.384Z,96147.16
2023-06-05T12:38:01.503Z,96144.78
2023-06-05T12:40:36.827Z,96138.50
2023-06-05T12:43:04.465Z,96135.03
2023-06-05T12:45:32.117Z,96128.03
2023-06-05T12:47:58.789Z,96130.72
2023-06-05T12:50:27.250Z,96134.28
2023-06-05T12:52:53.846Z,96130.28
2023-06-05T12:55:20.480Z,96127.25
2023-06-05T12:57:47.196Z,96120.94
2023-06-05T13:00:15.136Z,96126.09
2023-06-05T13:02:46.329Z,96129.19
2023-06-05T13:05:13.142Z,96128.78
2023-06-05T13:07:40.420Z,96128.97
2023-06-05T13:10:07.496Z,96119.59
2023-06-05T13:12:34.221Z,96125.81
2023-06-05T13:15:05.039Z,96132.78
2023-06-05T13:17:34.611Z,96130.00
2023-06-05T13:20:01.491Z,96124.69
2023-06-05T13:22:28.249Z,96127.44
2023-06-05T13:24:54.837Z,96121.59
2023-06-05T13:27:22.227Z,96122.09
2023-06-05T13:29:48.876Z,96128.16
2023-06-05T13:32:15.522Z,96132.84
2023-06-05T13:34:42.109Z,96133.72
2023-06-05T13:37:14.694Z,96123.78
2023-06-05T13:39:41.691Z,96118.81
2023-06-05T13:42:08.346Z,96123.16
2023-06-05T13:44:35.553Z,96119.19
2023-06-05T13:47:04.393Z,96117.69
2023-06-05T13:49:32.369Z,96113.44
2023-06-05T13:51:58.991Z,96116.53
2023-06-05T13:54:25.580Z,96109.13
2023-06-05T13:56:52.911Z,96113.88
2023-06-05T13:59:19.619Z,96112.03
2023-06-05T14:01:46.302Z,96110.50
2023-06-05T14:04:12.926Z,96120.41
2023-06-05T14:06:41.018Z,96118.31
2023-06-05T14:09:07.549Z,96112.47
2023-06-05T14:11:34.092Z,96110.84
2023-06-05T14:14:00.677Z,96098.47
2023-06-05T14:16:27.307Z,96104.34
2023-06-05T14:18:54.016Z,96094.16
2023-06-05T14:21:20.612Z,96099.00
2023-06-05T14:23:47.200Z,96100.44
2023-06-05T14:26:13.787Z,96097.44
2023-06-05T14:28:40.325Z,96097.25
2023-06-05T14:31:06.907Z,96089.94
2023-06-05T14:33:33.415Z,96086.78
2023-06-05T14:36:02.066Z,96079.06
2023-06-05T14:38:28.577Z,96084.00
2023-06-05T14:40:55.167Z,96073.03
2023-06-05T14:43:21.789Z,96086.03
2023-06-05T14:45:48.463Z,96085.09
2023-06-05T14:48:15.180Z,96083.75
2023-06-05T14:50:41.950Z,96082.81
2023-06-05T14:53:08.538Z,96076.91
2023-06-05T14:55:35.045Z,96082.88
2023-06-05T14:58:01.578Z,96077.97
2023-06-05T15:00:28.199Z,96079.03
2023-06-05T15:02:54.808Z,96071.41
2023-06-05T15:05:21.625Z,96074.56
2023-06-05T15:07:49.289Z,96078.00
2023-06-05T15:10:17.322Z,96084.19
2023-06-05T15:12:43.916Z,96090.97
2023-06-05T15:15:20.861Z,96080.53
2023-06-05T15:17:48.714Z,96077.72
2023-06-05T15:20:15.929Z,96083.34
2023-06-05T15:22:42.710Z,96084.38
2023-06-05T15:25:09.345Z,96087.31
2023-06-05T15:27:36.333Z,96088.56
2023-06-05T15:30:03.925Z,96091.19
2023-06-05T15:32:30.907Z,96085.09
2023-06-05T15:34:57.660Z,96081.94
2023-06-05T15:37:25.054Z,96080.38
2023-06-05T15:39:52.852Z,96080.06
2023-06-05T15:42:29.437Z,96081.44
2023-06-05T15:45:16.620Z,96075.34
2023-06-05T15:47:43.733Z,96079.81
2023-06-05T15:50:11.230Z,96077.56
2023-06-05T15:52:39.569Z,96081.59
2023-06-05T15:55:07.850Z,96077.28
2023-06-05T15:57:34.532Z,96076.56
2023-06-05T16:00:01.216Z,96084.00
2023-06-05T16:02:27.963Z,96075.72
2023-06-05T16:04:54.523Z,96081.06
2023-06-05T16:07:22.559Z,96072.13
2023-06-05T16:09:49.221Z,96072.56
2023-06-05T16:12:15.890Z,96071.63
2023-06-05T16:14:42.418Z,96065.00
2023-06-05T16:17:08.958Z,96063.16
2023-06-05T16:19:35.494Z,96061.22
2023-06-05T16:22:02.029Z,96066.69
2023-06-05T16:24:28.582Z,96065.16
2023-06-05T16:26:55.215Z,96057.78
2023-06-05T16:29:21.861Z,96058.41
2023-06-05T16:31:51.161Z,96059.59
2023-06-05T16:34:17.788Z,96050.84
2023-06-05T16:36:44.559Z,96054.25
2023-06-05T16:39:16.948Z,96052.97
2023-06-05T16:41:43.573Z,96058.09
2023-06-05T16:44:12.234Z,96058.00
2023-06-05T16:46:39.405Z,96055.97
2023-06-05T16:49:06.366Z,96052.75
2023-06-05T16:51:33.038Z,96061.81
2023-06-05T16:53:59.602Z,96055.91
2023-06-05T16:56:26.790Z,96063.22
2023-06-05T16:58:53.734Z,96056.53
2023-06-05T17:01:22.833Z,96052.69
2023-06-05T17:03:52.994Z,96052.09
2023-06-05T17:06:20.073Z,96055.09
2023-06-05T17:08:47.093Z,96053.09
2023-06-05T17:11:14.754Z,96061.53
2023-06-05T17:13:41.339Z,96059.50
2023-06-05T17:16:08.025Z,96062.28
2023-06-05T17:18:34.586Z,96057.63
2023-06-05T17:21:01.674Z,96058.50
2023-06-05T17:23:28.308Z,96061.97
2023-06-05T17:25:54.898Z,96062.97
2023-06-05T17:28:21.438Z,96063.25
2023-06-05T17:30:49.373Z,96055.28
2023-06-05T17:33:16.203Z,96058.34
2023-06-05T17:35:42.791Z,96050.25
2023-06-05T17:38:09.512Z,96049.81
2023-06-05T17:40:36.330Z,96048.38
2023-06-05T17:43:03.111Z,96045.16
2023-06-05T17:45:31.949Z,96040.56
2023-06-05T17:47:58.698Z,96037.09
2023-06-05T17:50:25.388Z,96039.28
2023-06-05T17:52:52.026Z,96037.22
2023-06-05T17:55:19.120Z,96041.69
2023-06-05T17:57:52.681Z,96042.16
2023-06-05T18:00:20.285Z,96041.03
2023-06-05T18:02:50.350Z,96048.84
2023-06-05T18:05:17.454Z,96043.44
2023-06-05T18:07:44.519Z,96043.50
2023-06-05T18:10:11.741Z,96044.75
2023-06-05T18:12:40.006Z,96042.47
2023-06-05T18:15:07.040Z,96042.03
2023-06-05T18:17:33.625Z,96047.94
2023-06-05T18:20:00.189Z,96042.75
2023-06-05T18:22:28.040Z,96041.66
2023-06-05T18:24:54.606Z,96048.41
2023-06-05T18:27:21.138Z,96049.22
2023-06-05T18:29:47.769Z,96046.56
2023-06-05T18:32:16.335Z,96051.56
2023-06-05T18:34:43.046Z,96047.72
2023-06-05T18:37:09.622Z,96056.59
2023-06-05T18:39:36.259Z,96051.13
2023-06-05T18:42:03.027Z,96058.91
2023-06-05T18:44:29.598Z,96052.31
2023-06-05T18:46:56.498Z,96060.91
2023-06-05T18:49:23.034Z,96055.03
2023-06-05T18:51:49.766Z,96060.00
2023-06-05T18:54:16.470Z,96063.59
2023-06-05T18:56:42.982Z,96064.78
2023-06-05T18:59:09.564Z,96063.09
2023-06-05T19:01:36.284Z,96063.97
2023-06-05T19:04:02.942Z,96069.81
2023-06-05T19:06:29.586Z,96066.81
2023-06-05T19:08:56.128Z,96073.63
2023-06-05T19:11:22.795Z,96069.56
2023-06-05T19:13:49.529Z,96080.53
2023-06-05T19:16:16.341Z,96078.69
2023-06-05T19:18:43.396Z,96077.03
2023-06-05T19:21:11.355Z,96072.72
2023-06-05T19:23:38.287Z,96080.47
2023-06-05T19:26:04.924Z,96081.97
2023-06-05T19:28:31.478Z,96082.75
2023-06-05T19:30:58.040Z,96083.88
2023-06-05T19:33:24.638Z,96084.19
2023-06-05T19:35:51.327Z,96090.97
2023-06-05T19:38:18.042Z,96094.56
2023-06-05T19:40:44.656Z,96096.06
2023-06-05T19:43:11.203Z,96096.53
2023-06-05T19:45:37.846Z,96103.47
2023-06-05T19:48:04.516Z,96098.72
2023-06-05T19:50:31.548Z,96102.13
2023-06-05T19:53:01.253Z,96095.00
2023-06-05T19:55:28.207Z,96096.00
2023-06-05T19:57:54.835Z,96097.16
2023-06-05T20:00:21.494Z,96093.63
2023-06-05T20:02:48.100Z,96091.34
2023-06-05T20:05:15.964Z,96093.25
2023-06-05T20:07:42.478Z,96096.34
2023-06-05T20:10:09.167Z,96096.72
2023-06-05T20:12:35.805Z,96095.56
2023-06-05T20:15:02.467Z,96094.44
2023-06-05T20:17:29.145Z,96093.25
2023-06-05T20:19:55.752Z,96093.41
2023-06-05T20:22:23.754Z,96090.56
2023-06-05T20:24:50.929Z,96086.41
2023-06-05T20:27:17.447Z,96091.66
2023-06-05T20:29:44.401Z,96088.19
2023-06-05T20:32:10.942Z,96087.84
2023-06-05T20:34:37.454Z,96091.69
2023-06-05T20:37:05.455Z,96091.28
2023-06-05T20:39:32.612Z,96094.19
2023-06-05T20:42:02.708Z,96096.38
2023-06-05T20:44:30.790Z,96089.75
2023-06-05T20:46:58.845Z,96098.94
2023-06-05T20:49:25.504Z,96096.78
2023-06-05T20:51:52.746Z,96094.78
2023-06-05T20:54:19.291Z,96092.47
2023-06-05T20:56:46.747Z,96090.94
2023-06-05T20:59:13.559Z,96088.91
2023-06-05T21:01:40.969Z,96087.31
2023-06-05T21:04:07.745Z,96085.72
2023-06-05T21:06:34.817Z,96082.66
2023-06-05T21:09:01.368Z,96085.38
2023-06-05T21:11:27.987Z,96086.53
2023-06-05T21:13:54.542Z,96088.03
2023-06-05T21:16:21.294Z,96087.59
2023-06-05T21:18:47.949Z,96086.13
2023-06-05T21:21:14.489Z,96089.03
2023-06-05T21:23:41.153Z,96091.56
2023-06-05T21:26:07.748Z,96083.41
2023-06-05T21:28:34.290Z,96088.78
2023-06-05T21:31:07.455Z,96089.03
2023-06-05T21:33:37.352Z,96083.50
2023-06-05T21:36:04.011Z,96088.59
2023-06-05T21:38:30.543Z,96075.88
2023-06-05T21:40:57.180Z,96076.41
2023-06-05T21:43:23.912Z,96075.78
2023-06-05T21:45:50.499Z,96072.19
2023-06-05T21:48:17.261Z,96079.19
2023-06-05T21:50:44.234Z,96072.53
2023-06-05T21:53:10.842Z,96080.44
2023-06-05T21:55:37.439Z,96072.34
2023-06-05T21:58:04.020Z,96077.28
2023-06-05T22:00:31.084Z,96071.75
2023-06-05T22:02:57.717Z,96065.44
2023-06-05T22:05:24.446Z,96068.16
2023-06-05T22:07:51.595Z,96072.44
2023-06-05T22:10:18.648Z,96067.72
2023-06-05T22:12:45.848Z,96066.28
2023-06-05T22:15:14.094Z,96069.47
2023-06-05T22:17:40.712Z,96069.91
2023-06-05T22:20:08.090Z,96066.28
2023-06-05T22:22:35.491Z,96065.34
2023-06-05T22:25:02.141Z,96066.41
2023-06-05T22:27:28.677Z,96070.00
2023-06-05T22:29:55.240Z,96065.44
2023-06-05T22:32:21.998Z,96067.56
2023-06-05T22:34:50.583Z,96067.38
2023-06-05T22:37:18.069Z,96066.94
2023-06-05T22:39:44.766Z,96066.66
2023-06-05T22:42:11.426Z,96062.63
2023-06-05T22:44:37.979Z,96065.78
2023-06-05T22:47:04.676Z,96063.06
2023-06-05T22:49:31.231Z,96064.31
2023-06-05T22:51:58.284Z,96065.78
2023-06-05T22:54:25.097Z,96062.28
2023-06-05T22:56:51.916Z,96061.75
2023-06-05T22:59:18.482Z,96062.00
2023-06-05T23:01:47.417Z,96057.53
2023-06-05T23:04:14.456Z,96059.44
2023-06-05T23:06:42.424Z,96064.72
2023-06-05T23:09:09.510Z,96060.06
2023-06-05T23:11:36.111Z,96057.53
2023-06-05T23:14:02.722Z,96064.63
2023-06-05T23:16:29.295Z,96060.31
2023-06-05T23:18:55.885Z,96061.47
2023-06-05T23:21:22.655Z,96067.16
2023-06-05T23:23:49.290Z,96059.56
2023-06-05T23:26:15.903Z,96062.78
2023-06-05T23:28:42.447Z,96051.19
2023-06-05T23:31:09.211Z,96054.28
2023-06-05T23:33:36.461Z,96051.75
2023-06-05T23:36:03.138Z,96055.59
2023-06-05T23:38:29.764Z,96051.03
2023-06-05T23:40:57.459Z,96050.16
2023-06-05T23:43:25.861Z,96052.25
2023-06-05T23:45:52.461Z,96049.19
2023-06-05T23:48:19.043Z,96045.34
2023-06-05T23:50:45.566Z,96053.72
2023-06-05T23:53:13.098Z,96051.63
2023-06-05T23:55:40.110Z,96053.03
2023-06-05T23:58:06.689Z,96050.50
